Time;durP1;ratioP1;P1;durP2;ratioP2;P2;SDS_P1;SDS_P2;PMS_P1;PMS_P2;Temp;Humidity;BMP_temperature;BMP_pressure;BME280_temperature;BME280_humidity;BME280_pressure;Samples;Min_cycle;Max_cycle;Signal;HPM_P1;HPM_P2
2023/08/31 00:01:03;;;;;;;15.85;9.55;;;12.60;99.90;;;11.87;100.00;97093.13;4946693;28;20058;-76
2023/08/31 00:03:32;;;;;;;17.02;9.70;;;12.50;99.90;;;11.89;100.00;97088.69;4960045;28;20068;-76
2023/08/31 00:06:03;;;;;;;15.15;8.18;;;12.50;99.90;;;12.03;100.00;97087.09;4937905;28;20504;-76
2023/08/31 00:08:34;;;;;;;17.50;8.40;;;12.50;99.90;;;11.95;100.00;97087.53;4931263;28;20051;-77
2023/08/31 00:11:05;;;;;;;18.08;8.68;;;12.50;99.90;;;11.89;100.00;97088.69;4959245;28;20555;-76
2023/08/31 00:13:35;;;;;;;16.73;7.88;;;12.50;99.90;;;11.95;100.00;97091.88;4946316;28;20170;-76
2023/08/31 00:16:02;;;;;;;14.65;9.15;;;12.50;99.90;;;11.85;100.00;97083.72;4944835;28;20051;-76
2023/08/31 00:18:30;;;;;;;13.43;9.20;;;12.50;99.90;;;11.81;100.00;97085.63;4947215;28;20055;-76
2023/08/31 00:20:58;;;;;;;21.20;10.50;;;12.50;99.90;;;11.79;100.00;97091.84;4947104;28;20142;-76
2023/08/31 00:23:25;;;;;;;13.32;8.48;;;12.50;99.90;;;11.87;100.00;97092.28;4947567;28;20059;-76
2023/08/31 00:25:53;;;;;;;14.20;8.40;;;12.50;99.90;;;11.84;100.00;97089.84;4962142;28;20078;-76
2023/08/31 00:28:21;;;;;;;13.05;7.43;;;12.50;99.90;;;11.87;100.00;97089.66;4947330;28;20049;-76
2023/08/31 00:30:48;;;;;;;16.60;8.63;;;12.50;99.90;;;11.81;100.00;97088.22;4947320;28;20059;-76
2023/08/31 00:33:16;;;;;;;14.68;8.32;;;12.50;99.90;;;11.75;100.00;97092.97;4943418;28;20059;-76
2023/08/31 00:35:45;;;;;;;13.98;7.10;;;12.50;99.90;;;11.73;100.00;97095.63;4930000;29;20209;-76
2023/08/31 00:38:16;;;;;;;14.73;8.65;;;12.40;99.90;;;11.68;100.00;97098.50;4945239;28;20082;-76
2023/08/31 00:40:45;;;;;;;11.45;6.00;;;12.40;99.90;;;11.72;100.00;97099.13;4942366;28;20051;-77
2023/08/31 00:43:15;;;;;;;15.15;8.35;;;12.40;99.90;;;11.63;100.00;97097.03;4931442;29;20054;-76
2023/08/31 00:45:44;;;;;;;12.85;7.07;;;12.30;99.90;;;11.59;100.00;97098.16;4943722;28;20070;-76
2023/08/31 00:48:16;;;;;;;12.63;8.38;;;12.30;99.90;;;11.55;100.00;97104.44;4946520;28;20051;-76
2023/08/31 00:50:45;;;;;;;14.43;8.32;;;12.40;99.90;;;11.63;100.00;97094.44;4960241;28;20055;-77
2023/08/31 00:53:15;;;;;;;15.02;7.35;;;12.40;99.90;;;11.61;100.00;97089.34;4947642;28;20516;-76
2023/08/31 00:55:47;;;;;;;14.18;7.53;;;12.30;99.90;;;11.59;100.00;97088.59;4946287;28;20137;-76
2023/08/31 00:58:14;;;;;;;10.80;5.03;;;12.30;99.90;;;11.67;100.00;97091.59;4932862;28;20047;-76
2023/08/31 01:01:43;;;;;;;12.00;6.95;;;12.40;99.90;;;11.64;100.00;97093.53;4946625;28;20051;-76
2023/08/31 01:04:34;;;;;;;13.88;7.55;;;12.40;99.90;;;11.50;100.00;97084.72;4955974;28;20584;-75
2023/08/31 01:07:16;;;;;;;;;;;12.30;99.90;;;11.51;100.00;97098.56;4946441;28;20134;-76
2023/08/31 01:10:04;;;;;;;10.90;5.78;;;12.30;99.90;;;11.39;100.00;97094.03;4944040;28;19926;-77
2023/08/31 01:13:11;;;;;;;10.75;6.03;;;12.20;99.90;;;11.24;100.00;97098.25;4948570;28;20468;-76
2023/08/31 01:15:51;;;;;;;16.85;6.53;;;12.10;99.90;;;11.22;100.00;97097.50;4931048;28;20432;-77
2023/08/31 01:18:24;;;;;;;11.57;5.82;;;12.00;99.90;;;11.09;100.00;97098.16;4941444;28;20089;-77
2023/08/31 01:21:22;;;;;;;14.00;5.15;;;12.00;99.90;;;11.04;100.00;97099.34;4928716;28;20141;-76
2023/08/31 01:23:54;;;;;;;16.45;6.50;;;11.90;99.90;;;10.95;100.00;97102.38;4941551;29;20168;-76
2023/08/31 01:26:22;;;;;;;14.80;8.00;;;11.80;99.90;;;10.94;100.00;97106.75;4943763;28;20347;-76
2023/08/31 01:28:50;;;;;;;12.98;6.80;;;11.80;99.90;;;10.94;100.00;97111.09;4944834;28;20061;-76
2023/08/31 01:31:18;;;;;;;15.05;5.97;;;11.80;99.90;;;11.02;100.00;97103.75;4945905;29;20627;-76
2023/08/31 01:33:45;;;;;;;18.25;7.72;;;11.70;99.90;;;10.92;100.00;97112.94;4945019;28;20051;-77
2023/08/31 01:36:30;;;;;;;20.67;6.85;;;11.60;99.90;;;10.89;100.00;97106.16;4956164;28;20047;-76
2023/08/31 01:39:27;;;;;;;12.15;5.72;;;11.60;99.90;;;10.95;100.00;97112.75;4941239;28;20055;-76
2023/08/31 01:42:02;;;;;;;13.30;5.60;;;11.60;99.90;;;10.84;100.00;97119.38;4948128;28;20059;-77
2023/08/31 01:44:32;;;;;;;16.10;5.82;;;11.60;99.90;;;10.81;100.00;97110.88;4958351;28;20567;-76
2023/08/31 01:47:07;;;;;;;11.75;4.68;;;11.60;99.90;;;10.87;100.00;97120.97;4945862;28;20500;-76
2023/08/31 01:49:43;;;;;;;10.27;3.95;;;11.60;99.90;;;10.87;100.00;97115.75;4942440;28;20139;-76
2023/08/31 01:52:10;;;;;;;13.23;5.13;;;11.60;99.90;;;10.73;100.00;97121.66;4942220;28;20054;-76
2023/08/31 01:54:37;;;;;;;10.85;4.60;;;11.60;99.90;;;10.71;100.00;97120.06;4944921;28;20058;-76
2023/08/31 01:57:05;;;;;;;9.65;4.30;;;11.50;99.90;;;10.68;100.00;97121.06;4947401;28;20055;-76
2023/08/31 01:59:35;;;;;;;11.93;4.20;;;11.50;99.90;;;10.64;100.00;97125.56;4944185;28;20114;-76
2023/08/31 02:02:02;;;;;;;16.40;4.57;;;11.40;99.90;;;10.75;100.00;97124.19;4945713;28;20051;-75
2023/08/31 02:04:30;;;;;;;11.07;4.45;;;11.40;99.90;;;10.77;100.00;97122.34;4945319;29;20094;-76
2023/08/31 02:06:57;;;;;;;10.93;3.63;;;11.40;99.90;;;10.81;100.00;97123.84;4944096;28;20051;-75
2023/08/31 02:09:27;;;;;;;10.43;4.22;;;11.40;99.90;;;10.76;100.00;97124.09;4942913;28;20043;-76
2023/08/31 02:11:54;;;;;;;13.35;4.85;;;11.50;99.90;;;10.87;100.00;97120.97;4947984;28;20047;-76
2023/08/31 02:14:22;;;;;;;12.48;3.70;;;11.50;99.90;;;10.83;100.00;97128.09;4944708;28;20116;-77
2023/08/31 02:16:49;;;;;;;12.02;3.88;;;11.50;99.90;;;10.87;100.00;97132.19;4944174;28;20063;-77
2023/08/31 02:19:16;;;;;;;11.02;4.10;;;11.60;99.90;;;10.82;100.00;97133.34;4940060;28;20047;-75
2023/08/31 02:21:44;;;;;;;9.55;4.10;;;11.60;99.90;;;10.82;100.00;97131.56;4946026;29;20139;-76
2023/08/31 02:24:12;;;;;;;8.30;3.28;;;11.60;99.90;;;10.86;100.00;97140.91;4946084;28;20734;-76
2023/08/31 02:26:39;;;;;;;12.15;3.97;;;11.50;99.90;;;10.93;100.00;97143.19;4947722;28;20074;-77
2023/08/31 02:29:06;;;;;;;8.25;2.85;;;11.60;99.90;;;10.98;100.00;97141.19;4943388;28;20051;-76
2023/08/31 02:31:33;;;;;;;11.30;3.17;;;11.60;99.90;;;11.07;100.00;97141.56;4945729;28;20302;-76
2023/08/31 02:34:00;;;;;;;7.20;2.78;;;11.60;99.90;;;11.08;100.00;97144.97;4947800;28;20082;-77
2023/08/31 02:36:27;;;;;;;11.68;3.30;;;11.60;99.90;;;11.06;100.00;97132.09;4944635;28;20117;-76
2023/08/31 02:38:56;;;;;;;9.80;3.53;;;11.70;99.90;;;11.04;100.00;97143.50;4943284;28;20051;-76
2023/08/31 02:41:24;;;;;;;5.70;2.53;;;11.70;99.90;;;11.03;100.00;97147.81;4945571;28;20491;-76
2023/08/31 02:43:52;;;;;;;10.93;3.35;;;11.70;99.90;;;10.95;100.00;97141.31;4929770;29;20476;-76
2023/08/31 02:46:19;;;;;;;9.32;2.75;;;11.70;99.90;;;11.02;100.00;97143.56;4944778;28;20138;-77
2023/08/31 02:48:47;;;;;;;7.63;2.85;;;11.70;99.90;;;10.96;100.00;97149.06;4945220;28;20431;-76
2023/08/31 02:51:14;;;;;;;14.07;3.63;;;11.70;99.90;;;11.01;100.00;97160.03;4951205;28;20051;-75
2023/08/31 02:53:42;;;;;;;8.98;3.40;;;11.60;99.90;;;10.96;100.00;97154.25;4949914;28;20051;-75
2023/08/31 02:56:09;;;;;;;9.70;3.33;;;11.70;99.90;;;11.00;100.00;97152.34;4945888;29;20424;-76
2023/08/31 02:58:36;;;;;;;10.02;2.88;;;11.70;99.90;;;11.12;100.00;97153.47;4944875;28;20055;-76
2023/08/31 03:01:12;;;;;;;9.02;3.13;;;11.60;99.90;;;11.10;100.00;97161.34;4949586;28;20075;-76
2023/08/31 03:03:41;;;;;;;7.47;2.72;;;11.70;99.90;;;11.10;100.00;97167.34;4932999;29;20047;-76
2023/08/31 03:06:09;;;;;;;8.90;2.70;;;11.60;99.90;;;10.95;100.00;97168.16;4950040;28;20130;-76
2023/08/31 03:08:37;;;;;;;8.05;2.38;;;11.70;99.90;;;11.07;100.00;97171.88;4945493;28;20122;-76
2023/08/31 03:11:05;;;;;;;7.50;2.92;;;11.60;99.90;;;11.05;100.00;97181.50;4949457;28;20142;-75
2023/08/31 03:13:33;;;;;;;10.13;3.20;;;11.60;99.90;;;10.95;100.00;97167.28;4948012;28;20047;-76
2023/08/31 03:16:02;;;;;;;15.90;3.00;;;11.60;99.90;;;10.96;100.00;97171.59;4947111;28;20055;-76
2023/08/31 03:18:31;;;;;;;13.10;3.78;;;11.60;99.90;;;10.96;100.00;97174.19;4948492;28;20043;-77
2023/08/31 03:20:58;;;;;;;8.38;3.08;;;11.60;99.90;;;10.94;100.00;97173.41;4946060;28;20511;-76
2023/08/31 03:23:26;;;;;;;6.97;3.17;;;11.60;99.90;;;10.86;100.00;97171.22;4948230;28;20055;-76
2023/08/31 03:25:53;;;;;;;11.77;3.25;;;11.60;99.90;;;10.72;100.00;97177.09;4964491;28;20074;-76
2023/08/31 03:28:21;;;;;;;12.52;4.00;;;11.60;99.90;;;10.68;100.00;97189.38;4945473;28;20047;-76
2023/08/31 03:30:56;;;;;;;8.32;2.72;;;11.50;99.90;;;10.67;100.00;97194.63;4948081;28;20425;-76
2023/08/31 03:33:23;;;;;;;13.93;3.83;;;11.40;99.90;;;10.64;100.00;97185.25;4944843;28;20102;-76
2023/08/31 03:35:50;;;;;;;8.88;3.03;;;11.40;99.90;;;10.62;100.00;97191.44;4947528;28;20063;-76
2023/08/31 03:38:18;;;;;;;9.75;2.88;;;11.30;99.90;;;10.58;100.00;97188.16;4949030;28;20142;-76
2023/08/31 03:40:54;;;;;;;14.65;2.92;;;11.30;99.90;;;10.59;100.00;97187.25;4949606;28;20053;-75
2023/08/31 03:43:21;;;;;;;10.40;3.92;;;11.30;99.90;;;10.50;100.00;97187.69;4954382;28;20055;-76
2023/08/31 03:45:53;;;;;;;9.48;3.20;;;11.20;99.90;;;10.45;100.00;97193.09;4946092;28;20047;-76
2023/08/31 03:48:20;;;;;;;7.10;3.13;;;11.20;99.90;;;10.43;100.00;97186.31;4948009;28;20047;-76
2023/08/31 03:50:53;;;;;;;12.52;3.95;;;11.20;99.90;;;10.40;100.00;97189.03;4948266;28;20095;-76
2023/08/31 03:53:20;;;;;;;;;;;11.20;99.90;;;10.41;100.00;97191.56;4961561;28;20051;-76
2023/08/31 03:55:47;;;;;;;8.65;3.13;;;11.20;99.90;;;10.41;100.00;97186.38;4960966;28;19931;-76
2023/08/31 03:58:14;;;;;;;11.93;3.13;;;11.10;99.90;;;10.40;100.00;97186.44;4945512;28;20044;-76
2023/08/31 04:00:41;;;;;;;9.95;3.70;;;11.10;99.90;;;10.36;100.00;97184.94;4946480;28;20131;-76
2023/08/31 04:03:09;;;;;;;10.85;3.35;;;11.10;99.90;;;10.35;100.00;97191.00;4947068;28;20134;-76
2023/08/31 04:05:37;;;;;;;13.30;3.72;;;11.00;99.90;;;10.29;100.00;97193.91;4932180;29;20433;-76
2023/08/31 04:08:04;;;;;;;9.25;3.80;;;11.10;99.90;;;10.37;100.00;97189.19;4949380;28;20113;-76
2023/08/31 04:10:32;;;;;;;15.10;3.67;;;11.00;99.90;;;10.25;100.00;97186.22;4940437;28;20071;-75
2023/08/31 04:12:59;;;;;;;11.98;2.80;;;11.00;99.90;;;10.31;100.00;97171.31;4944319;28;20052;-76
2023/08/31 04:15:26;;;;;;;12.65;3.08;;;11.10;99.90;;;10.22;100.00;97183.78;4931956;29;20165;-76
2023/08/31 04:17:53;;;;;;;11.82;3.58;;;11.10;99.90;;;10.25;100.00;97186.22;4948190;28;20055;-76
2023/08/31 04:20:22;;;;;;;8.40;2.88;;;11.00;99.90;;;10.25;100.00;97193.19;4948637;28;20055;-75
2023/08/31 04:22:49;;;;;;;11.57;3.13;;;11.00;99.90;;;10.22;100.00;97188.97;4946448;28;20055;-76
2023/08/31 04:25:16;;;;;;;7.80;2.50;;;11.00;99.90;;;10.25;100.00;97191.41;4948289;28;20039;-76
2023/08/31 04:27:45;;;;;;;11.13;3.35;;;11.00;99.90;;;10.15;100.00;97194.50;4944689;28;20039;-76
2023/08/31 04:30:12;;;;;;;7.63;3.03;;;11.00;99.90;;;10.22;100.00;97196.75;4946058;28;20051;-76
2023/08/31 04:32:39;;;;;;;9.82;3.10;;;11.00;99.90;;;10.26;100.00;97205.22;4944535;28;20074;-77
2023/08/31 04:35:07;;;;;;;9.55;3.28;;;11.00;99.90;;;10.10;100.00;97197.31;4931226;29;20051;-75
2023/08/31 04:37:34;;;;;;;10.90;3.10;;;10.90;99.90;;;10.15;100.00;97204.88;4950157;28;20512;-76
2023/08/31 04:40:03;;;;;;;9.55;3.17;;;10.90;99.90;;;10.06;100.00;97213.97;4946878;28;20134;-76
2023/08/31 04:42:31;;;;;;;9.52;2.75;;;10.90;99.90;;;10.16;100.00;97219.56;4916498;29;20050;-76
2023/08/31 04:44:58;;;;;;;6.82;2.35;;;10.90;99.90;;;10.13;100.00;97217.94;4946552;28;20043;-76
2023/08/31 04:47:25;;;;;;;10.75;2.55;;;10.90;99.90;;;10.09;100.00;97223.34;4929611;28;20051;-76
2023/08/31 04:49:55;;;;;;;8.10;2.75;;;10.90;99.90;;;10.13;100.00;97225.72;4947736;28;20106;-75
2023/08/31 04:52:23;;;;;;;8.93;2.63;;;10.90;99.90;;;10.20;100.00;97223.69;4946582;28;20047;-76
2023/08/31 04:54:50;;;;;;;10.30;2.47;;;10.90;99.90;;;10.17;100.00;97223.81;4949106;28;20085;-76
2023/08/31 04:57:17;;;;;;;7.32;2.72;;;10.90;99.90;;;10.16;100.00;97227.34;4931586;28;20110;-76
2023/08/31 04:59:44;;;;;;;6.75;2.53;;;10.90;99.90;;;10.21;100.00;97231.38;4943188;28;20099;-76
2023/08/31 05:02:11;;;;;;;11.35;2.65;;;10.90;99.90;;;10.18;100.00;97228.94;4944768;28;20131;-76
2023/08/31 05:04:38;;;;;;;8.60;2.58;;;10.90;99.90;;;10.27;100.00;97232.84;4933945;29;20130;-76
2023/08/31 05:07:06;;;;;;;12.40;2.78;;;11.00;99.90;;;10.29;100.00;97235.44;4945377;28;20595;-76
2023/08/31 05:09:34;;;;;;;8.88;2.28;;;11.00;99.90;;;10.16;100.00;97232.53;4932137;29;20082;-76
2023/08/31 05:12:02;;;;;;;8.23;2.40;;;11.00;99.90;;;10.29;100.00;97240.63;4932612;29;20070;-75
2023/08/31 05:14:30;;;;;;;9.60;3.50;;;11.00;99.90;;;10.30;100.00;97243.13;4945207;28;20055;-76
2023/08/31 05:16:57;;;;;;;8.07;2.70;;;11.00;99.90;;;10.41;100.00;97243.44;4946123;28;20051;-76
2023/08/31 05:19:26;;;;;;;8.80;2.75;;;11.10;99.90;;;10.35;100.00;97251.50;4945920;28;20504;-76
2023/08/31 05:21:53;;;;;;;6.65;2.80;;;11.10;99.90;;;10.32;100.00;97250.84;4943891;28;20086;-76
2023/08/31 05:24:20;;;;;;;7.20;2.78;;;11.10;99.90;;;10.30;100.00;97255.25;4944517;29;20593;-76
2023/08/31 05:26:49;;;;;;;7.57;2.47;;;11.10;99.90;;;10.40;100.00;97252.16;4947215;28;20167;-76
2023/08/31 05:29:17;;;;;;;6.15;2.13;;;11.10;99.90;;;10.44;100.00;97255.44;4928720;29;20743;-76
2023/08/31 05:31:44;;;;;;;9.32;2.55;;;11.10;99.90;;;10.42;100.00;97252.94;4943259;28;20130;-76
2023/08/31 05:34:16;;;;;;;13.60;2.95;;;11.10;99.90;;;10.41;100.00;97263.38;4930446;28;20481;-75
2023/08/31 05:36:43;;;;;;;12.95;2.75;;;11.20;99.90;;;10.48;100.00;97264.75;4944684;28;20141;-76
2023/08/31 05:39:10;;;;;;;8.32;2.45;;;11.20;99.90;;;10.55;100.00;97266.16;4929213;29;20142;-74
2023/08/31 05:41:40;;;;;;;8.02;2.45;;;11.20;99.90;;;10.48;100.00;97256.97;4945435;28;20137;-75
2023/08/31 05:44:11;;;;;;;6.65;2.15;;;11.20;99.90;;;10.66;100.00;97260.47;4946735;28;20051;-75
2023/08/31 05:46:41;;;;;;;;;;;11.30;99.90;;;10.60;100.00;97268.53;4929858;29;20056;-76
2023/08/31 05:49:08;;;;;;;11.60;2.83;;;11.30;99.90;;;10.65;100.00;97271.75;4948377;28;20081;-76
2023/08/31 05:51:36;;;;;;;10.48;2.63;;;11.30;99.90;;;10.69;100.00;97273.28;4942893;28;20054;-76
2023/08/31 05:54:03;;;;;;;11.07;2.50;;;11.40;99.90;;;10.70;100.00;97267.19;4947337;28;20055;-75
2023/08/31 05:56:31;;;;;;;6.63;2.15;;;11.30;99.90;;;10.71;100.00;97276.66;4948332;28;20070;-76
2023/08/31 05:58:58;;;;;;;4.85;2.10;;;11.30;99.90;;;10.88;100.00;97279.28;4947109;28;20074;-76
2023/08/31 06:01:25;;;;;;;12.00;2.35;;;11.50;99.90;;;10.95;100.00;97282.41;4944751;28;20166;-75
2023/08/31 06:03:52;;;;;;;7.28;1.45;;;11.50;99.90;;;11.05;100.00;97273.25;4947926;28;20091;-76
2023/08/31 06:06:21;;;;;;;18.88;2.50;;;11.60;99.90;;;11.18;100.00;97280.44;4943490;28;20081;-76
2023/08/31 06:08:49;;;;;;;7.68;2.67;;;11.60;99.90;;;11.20;100.00;97273.41;4930588;28;20051;-76
2023/08/31 06:11:16;;;;;;;6.95;2.25;;;11.70;99.90;;;11.26;100.00;97286.09;4947183;28;20170;-76
2023/08/31 06:13:44;;;;;;;8.80;2.03;;;11.70;99.90;;;11.12;100.00;97276.38;4944759;28;20508;-76
2023/08/31 06:16:11;;;;;;;7.57;2.03;;;11.70;99.90;;;11.10;100.00;97276.44;4942576;28;20094;-75
2023/08/31 06:18:38;;;;;;;5.82;1.73;;;11.70;99.90;;;11.29;100.00;97280.75;4944300;28;20051;-76
2023/08/31 06:21:05;;;;;;;7.97;2.17;;;11.70;99.90;;;11.37;100.00;97282.97;4945881;28;20165;-76
2023/08/31 06:23:32;;;;;;;8.13;2.40;;;11.80;99.90;;;11.41;100.00;97285.31;4942296;28;20119;-76
2023/08/31 06:25:59;;;;;;;8.05;2.42;;;11.80;99.90;;;11.54;100.00;97287.28;4945391;28;20134;-76
2023/08/31 06:28:27;;;;;;;11.38;1.92;;;11.80;99.90;;;11.65;100.00;97293.63;4929933;29;20054;-76
2023/08/31 06:30:54;;;;;;;5.97;1.70;;;11.90;99.90;;;11.85;100.00;97292.59;4910128;29;20043;-76
2023/08/31 06:33:21;;;;;;;9.65;2.42;;;12.00;99.90;;;11.89;100.00;97299.34;4943932;28;20520;-76
2023/08/31 06:35:51;;;;;;;10.25;2.47;;;12.10;99.90;;;12.11;100.00;97298.19;4930324;28;20077;-76
2023/08/31 06:38:20;;;;;;;7.65;2.33;;;12.20;99.90;;;12.10;100.00;97297.38;4944035;28;20050;-76
2023/08/31 06:40:48;;;;;;;6.43;2.05;;;12.20;99.90;;;12.05;100.00;97298.53;4926166;29;20127;-76
2023/08/31 06:43:15;;;;;;;8.93;1.83;;;12.30;99.90;;;12.08;100.00;97303.56;4946053;28;20059;-76
2023/08/31 06:45:44;;;;;;;7.63;1.95;;;12.40;99.90;;;12.27;100.00;97296.47;4947163;28;20475;-77
2023/08/31 06:48:12;;;;;;;6.43;2.25;;;12.50;99.90;;;12.35;100.00;97298.66;4944464;28;20466;-77
2023/08/31 06:50:39;;;;;;;8.68;1.98;;;12.50;99.90;;;12.52;100.00;97292.53;4960717;28;20564;-77
2023/08/31 06:53:06;;;;;;;10.77;2.28;;;12.60;99.90;;;12.42;100.00;97288.75;4943537;28;20051;-76
2023/08/31 06:55:33;;;;;;;7.75;1.77;;;12.70;99.90;;;12.53;100.00;97287.25;4945865;28;20047;-76
2023/08/31 06:58:04;;;;;;;11.32;1.88;;;12.80;99.90;;;12.65;100.00;97292.69;4943031;28;20115;-76
2023/08/31 07:00:34;;;;;;;9.23;2.47;;;12.90;99.90;;;12.88;100.00;97291.41;4942934;28;20113;-76
2023/08/31 07:03:02;;;;;;;8.77;2.40;;;13.00;99.90;;;12.80;100.00;97285.81;4944103;28;20095;-76
2023/08/31 07:05:35;;;;;;;8.13;1.52;;;13.10;99.90;;;12.96;100.00;97284.84;4944818;28;20075;-76
2023/08/31 07:08:02;;;;;;;6.05;1.67;;;13.20;99.90;;;12.89;100.00;97291.34;4942911;28;20732;-77
2023/08/31 07:10:30;;;;;;;10.48;1.90;;;13.20;99.90;;;13.23;100.00;97299.84;4944505;29;20132;-76
2023/08/31 07:12:58;;;;;;;9.95;1.80;;;13.30;99.90;;;13.38;100.00;97298.94;4944414;29;20580;-76
2023/08/31 07:15:26;;;;;;;9.63;2.40;;;13.50;99.90;;;13.34;100.00;97297.47;4941898;28;20060;-76
2023/08/31 07:17:53;;;;;;;10.80;1.77;;;13.50;99.90;;;13.45;100.00;97303.81;4939191;28;20062;-77
2023/08/31 07:20:21;;;;;;;7.82;2.13;;;13.40;99.90;;;13.39;100.00;97303.25;4943589;28;20065;-76
2023/08/31 07:22:48;;;;;;;9.23;1.50;;;13.50;99.90;;;13.52;100.00;97302.53;4943471;29;20059;-76
2023/08/31 07:25:15;;;;;;;5.60;1.40;;;13.60;99.90;;;13.65;100.00;97306.09;4944639;29;20580;-75
2023/08/31 07:27:42;;;;;;;7.57;1.73;;;13.60;99.90;;;13.53;100.00;97304.22;4942816;28;20051;-77
2023/08/31 07:30:10;;;;;;;8.55;1.40;;;13.60;99.90;;;13.61;100.00;97304.59;4955447;28;20131;-77
2023/08/31 07:32:37;;;;;;;9.77;1.52;;;13.80;99.90;;;13.71;100.00;97304.91;4958450;28;20063;-77
2023/08/31 07:35:06;;;;;;;5.50;1.30;;;13.90;99.90;;;13.59;100.00;97307.31;4942800;28;20063;-77
2023/08/31 07:37:34;;;;;;;4.22;1.42;;;13.90;99.90;;;13.77;100.00;97309.72;4945800;29;20150;-76
2023/08/31 07:40:01;;;;;;;9.15;1.50;;;14.00;99.90;;;13.89;100.00;97314.22;4945115;28;20051;-75
2023/08/31 07:42:29;;;;;;;8.35;1.25;;;14.00;99.90;;;14.15;100.00;97315.25;4948792;28;20059;-76
2023/08/31 07:44:56;;;;;;;7.18;1.60;;;14.10;99.90;;;14.06;100.00;97320.19;4948917;28;20043;-77
2023/08/31 07:47:23;;;;;;;7.38;1.77;;;14.10;99.90;;;13.97;100.00;97321.59;4945067;28;20047;-77
2023/08/31 07:49:52;;;;;;;9.63;1.90;;;14.20;99.90;;;13.93;100.00;97322.69;4949456;29;20051;-77
2023/08/31 07:52:21;;;;;;;5.93;1.30;;;14.20;99.90;;;14.19;100.00;97323.75;4933604;29;20138;-77
2023/08/31 07:54:48;;;;;;;4.55;1.45;;;14.40;99.90;;;14.11;100.00;97336.41;4942934;29;20094;-76
2023/08/31 07:57:18;;;;;;;5.25;1.52;;;14.40;99.90;;;14.37;100.00;97342.66;4941141;29;20556;-76
2023/08/31 07:59:45;;;;;;;7.35;1.20;;;14.40;99.90;;;14.40;100.00;97352.91;4930512;29;20086;-77
2023/08/31 08:02:12;;;;;;;9.45;1.20;;;14.60;99.90;;;14.68;100.00;97340.78;4944961;29;20083;-77
2023/08/31 08:04:39;;;;;;;5.63;1.35;;;14.60;99.90;;;15.01;100.00;97336.03;4946870;28;20051;-77
2023/08/31 08:07:06;;;;;;;5.50;1.40;;;14.80;99.90;;;15.14;100.00;97345.66;4946852;29;20051;-76
2023/08/31 08:09:33;;;;;;;8.35;1.50;;;14.90;99.90;;;15.76;100.00;97339.88;4948115;29;20059;-77
2023/08/31 08:12:00;;;;;;;7.97;1.33;;;15.10;99.90;;;15.64;100.00;97360.66;4946372;28;20054;-77
2023/08/31 08:14:28;;;;;;;5.35;1.40;;;15.10;99.90;;;16.00;100.00;97355.72;4940257;29;20051;-77
2023/08/31 08:16:55;;;;;;;9.85;1.50;;;15.10;99.90;;;15.66;100.00;97373.63;4931623;29;20110;-76
2023/08/31 08:19:27;;;;;;;7.18;1.58;;;15.30;99.90;;;16.51;100.00;97366.13;4945505;28;20776;-77
2023/08/31 08:21:55;;;;;;;5.25;1.35;;;15.50;99.90;;;16.51;100.00;97364.38;4945523;28;20047;-78
2023/08/31 08:24:22;;;;;;;4.78;1.52;;;16.00;99.90;;;16.59;100.00;97358.59;4947695;29;20512;-78
2023/08/31 08:26:49;;;;;;;8.82;1.65;;;16.50;99.90;;;17.22;100.00;97374.25;4945615;29;20540;-77
2023/08/31 08:29:17;;;;;;;5.38;1.90;;;16.90;99.90;;;16.60;100.00;97383.00;4960256;28;20039;-77
2023/08/31 08:31:44;;;;;;;7.03;1.83;;;17.30;99.90;;;16.58;100.00;97385.75;4944266;28;20078;-76
2023/08/31 08:34:11;;;;;;;5.93;1.50;;;18.00;99.90;;;17.66;100.00;97380.66;4943601;28;20137;-77
2023/08/31 08:36:38;;;;;;;9.00;1.60;;;18.30;99.90;;;17.75;100.00;97379.97;4945508;28;20047;-77
2023/08/31 08:39:05;;;;;;;3.50;1.38;;;19.00;99.90;;;17.56;100.00;97380.47;4942727;29;20066;-77
2023/08/31 08:41:33;;;;;;;5.43;1.50;;;19.50;99.90;;;18.15;100.00;97393.59;4949800;29;20443;-76
2023/08/31 08:44:05;;;;;;;6.40;1.20;;;19.60;99.90;;;17.88;100.00;97372.00;4933600;29;20053;-77
2023/08/31 08:46:33;;;;;;;7.88;1.35;;;20.10;99.90;;;18.32;100.00;97387.03;4942385;28;20040;-77
2023/08/31 08:49:02;;;;;;;4.35;1.38;;;19.50;99.90;;;18.01;100.00;97393.78;4947689;29;20474;-77
2023/08/31 08:51:31;;;;;;;5.65;1.10;;;19.50;99.90;;;18.36;100.00;97398.97;4946443;29;20054;-77
2023/08/31 08:54:00;;;;;;;4.85;1.05;;;19.30;99.90;;;19.08;100.00;97396.91;4946521;28;20090;-76
2023/08/31 08:56:27;;;;;;;4.80;1.10;;;19.90;99.90;;;18.51;100.00;97410.06;4948447;29;20055;-77
2023/08/31 08:58:55;;;;;;;7.03;1.90;;;19.10;99.90;;;18.52;100.00;97403.88;4950382;29;20098;-77
2023/08/31 09:01:24;;;;;;;5.80;1.10;;;19.10;99.90;;;17.90;100.00;97410.34;4936218;29;20062;-77
2023/08/31 09:03:51;;;;;;;5.57;1.30;;;18.40;99.90;;;18.64;100.00;97417.03;4931557;28;20055;-75
2023/08/31 09:06:20;;;;;;;6.32;1.40;;;18.30;99.90;;;18.61;100.00;97412.84;4939739;28;20078;-77
2023/08/31 09:08:59;;;;;;;10.10;1.60;;;18.40;99.90;;;17.63;100.00;97421.09;4941162;28;20150;-75
2023/08/31 09:11:26;;;;;;;6.15;1.30;;;18.10;99.90;;;18.14;100.00;97420.78;4934742;28;20222;-76
2023/08/31 09:13:56;;;;;;;6.70;1.50;;;18.70;99.90;;;17.51;100.00;97430.66;4943960;28;20075;-76
2023/08/31 09:16:26;;;;;;;5.85;1.20;;;18.40;99.90;;;18.49;100.00;97429.56;4929460;29;20077;-77
2023/08/31 09:18:56;;;;;;;6.05;1.10;;;18.20;99.90;;;19.00;100.00;97429.13;4944586;29;20473;-77
2023/08/31 09:21:36;;;;;;;6.15;1.40;;;18.60;99.90;;;18.54;100.00;97419.50;4943942;29;20058;-77
2023/08/31 09:24:18;;;;;;;5.32;1.25;;;18.80;99.90;;;18.93;100.00;97414.75;4946936;28;20047;-77
2023/08/31 09:26:52;;;;;;;6.05;1.42;;;19.50;99.90;;;18.66;100.00;97423.84;4947283;28;20421;-77
2023/08/31 09:29:19;;;;;;;4.90;1.65;;;19.60;99.90;;;18.53;100.00;97410.78;4945634;28;20482;-77
2023/08/31 09:31:47;;;;;;;5.07;1.52;;;19.70;99.90;;;18.64;100.00;97430.16;4947636;29;20055;-77
2023/08/31 09:34:16;;;;;;;6.55;1.20;;;19.40;99.90;;;19.62;100.00;97419.72;4946221;29;20187;-77
2023/08/31 09:36:44;;;;;;;7.30;1.80;;;19.40;99.90;;;18.62;100.00;97427.66;4944143;28;20047;-77
2023/08/31 09:39:14;;;;;;;5.85;1.52;;;19.80;99.90;;;20.16;100.00;97426.69;4945138;28;20055;-77
2023/08/31 09:41:55;;;;;;;8.50;1.88;;;20.00;99.90;;;19.29;100.00;97415.41;4941643;28;20056;-77
2023/08/31 09:44:23;;;;;;;7.40;1.38;;;20.40;99.90;;;19.78;100.00;97428.06;4953246;28;20065;-80
2023/08/31 09:46:50;;;;;;;6.50;1.40;;;20.10;99.90;;;18.85;100.00;97428.50;4966254;28;20145;-81
2023/08/31 09:49:20;;;;;;;5.43;1.40;;;20.20;99.90;;;19.24;100.00;97423.66;4962653;28;20125;-79
2023/08/31 09:51:50;;;;;;;5.55;1.45;;;19.50;99.90;;;18.69;100.00;97438.53;4981899;28;20075;-79
2023/08/31 09:54:19;;;;;;;8.18;1.70;;;19.30;99.90;;;19.41;100.00;97428.41;4964476;28;20133;-78
2023/08/31 09:56:48;;;;;;;7.80;2.10;;;19.50;99.90;;;19.16;100.00;97421.66;4961973;28;20057;-77
2023/08/31 09:59:17;;;;;;;7.10;1.92;;;19.50;99.90;;;19.55;100.00;97418.56;4950262;28;20057;-80
2023/08/31 10:01:50;;;;;;;8.25;1.80;;;19.80;99.90;;;19.54;100.00;97435.31;4961735;28;20097;-77
2023/08/31 10:04:17;;;;;;;6.60;2.05;;;19.30;99.90;;;19.81;100.00;97424.34;4963517;28;20057;-77
2023/08/31 10:06:44;;;;;;;7.68;1.95;;;19.50;99.90;;;20.03;100.00;97439.22;4957648;28;20078;-77
2023/08/31 10:09:14;;;;;;;8.48;1.90;;;19.70;99.90;;;18.72;100.00;97425.97;4960537;28;20098;-77
2023/08/31 10:11:42;;;;;;;8.35;1.73;;;19.50;99.90;;;18.24;100.00;97426.16;4963785;28;20086;-75
2023/08/31 10:14:11;;;;;;;5.93;1.85;;;19.10;99.90;;;19.59;100.00;97426.09;4962392;28;20053;-76
2023/08/31 10:16:44;;;;;;;5.55;1.77;;;19.20;99.90;;;19.67;100.00;97424.63;4963625;28;20098;-80
2023/08/31 10:19:11;;;;;;;7.82;1.65;;;19.70;99.90;;;20.46;100.00;97435.59;4956746;28;20779;-77